Time;durP1;ratioP1;P1;durP2;ratioP2;P2;SDS_P1;SDS_P2;PMS_P1;PMS_P2;Temp;Humidity;BMP_temperature;BMP_pressure;BME280_temperature;BME280_humidity;BME280_pressure;Samples;Min_cycle;Max_cycle;Signal;HPM_P1;HPM_P2
2023/04/06 00:01:31;;;;;;;6.47;3.20;;;;;;;18.08;36.84;101444.13;5053707;28;20479;-47
2023/04/06 00:03:59;;;;;;;4.88;3.47;;;;;;;18.07;36.79;101443.28;5053854;28;20044;-48
2023/04/06 00:06:26;;;;;;;6.07;3.80;;;;;;;18.07;36.61;101442.38;5053860;28;20041;-47
2023/04/06 00:08:54;;;;;;;5.60;3.20;;;;;;;18.07;36.64;101442.38;5053768;28;20048;-47
2023/04/06 00:11:22;;;;;;;5.13;3.40;;;;;;;18.05;36.63;101439.81;5053802;28;20067;-48
2023/04/06 00:13:49;;;;;;;5.78;2.80;;;;;;;18.06;36.65;101443.34;5053607;28;20052;-47
2023/04/06 00:16:17;;;;;;;3.70;2.92;;;;;;;18.04;36.52;101438.97;5053956;28;20060;-45
2023/04/06 00:18:45;;;;;;;4.65;3.22;;;;;;;18.04;36.55;101432.75;5053684;28;20502;-45
2023/04/06 00:21:13;;;;;;;4.28;2.88;;;;;;;18.03;36.55;101428.38;5053171;28;20415;-46
2023/04/06 00:23:41;;;;;;;5.10;3.08;;;;;;;18.03;36.68;101439.94;5053442;28;20045;-51
2023/04/06 00:26:09;;;;;;;4.68;3.03;;;;;;;18.03;36.72;101431.91;5053892;28;20051;-48
2023/04/06 00:28:37;;;;;;;4.65;3.20;;;;;;;18.02;36.62;101440.88;5052441;28;20056;-47
2023/04/06 00:31:04;;;;;;;7.97;3.70;;;;;;;18.02;36.57;101442.72;5052546;28;20045;-47
2023/04/06 00:33:32;;;;;;;8.10;3.20;;;;;;;18.01;36.79;101441.88;5053513;28;20052;-47
2023/04/06 00:35:59;;;;;;;4.65;3.22;;;;;;;18.01;36.64;101446.38;5053683;28;20404;-47
2023/04/06 00:38:27;;;;;;;4.30;2.63;;;;;;;18.01;36.70;101443.69;5053569;28;20045;-45
2023/04/06 00:40:54;;;;;;;4.68;3.10;;;;;;;18.00;36.71;101439.31;5053488;28;20511;-47
2023/04/06 00:43:21;;;;;;;4.30;3.35;;;;;;;18.00;36.70;101444.66;5053144;28;20056;-45
2023/04/06 00:45:49;;;;;;;5.00;3.00;;;;;;;18.00;36.83;101444.66;5053201;28;20395;-46
2023/04/06 00:48:16;;;;;;;6.25;3.30;;;;;;;17.99;36.79;101448.31;5036831;28;20399;-45
2023/04/06 00:50:44;;;;;;;4.13;2.72;;;;;;;17.99;36.81;101449.16;5057399;28;20048;-47
2023/04/06 00:53:11;;;;;;;4.45;3.40;;;;;;;17.98;36.73;101457.28;5057160;28;20487;-45
2023/04/06 00:55:39;;;;;;;4.63;2.72;;;;;;;17.99;36.75;101459.03;5057561;28;20045;-50
2023/04/06 00:58:07;;;;;;;5.57;3.03;;;;;;;17.98;36.70;101455.47;5056001;28;20056;-50
2023/04/06 01:00:44;;;;;;;4.60;2.90;;;;;;;17.97;36.89;101445.72;5057464;28;20053;-50
2023/04/06 01:03:16;;;;;;;6.85;3.30;;;;;;;17.96;36.91;101444.00;5056265;28;20435;-47
2023/04/06 01:05:44;;;;;;;4.47;3.15;;;;;;;17.96;37.18;101438.66;5056132;28;20056;-48
2023/04/06 01:08:20;;;;;;;6.00;3.20;;;;;;;17.96;37.04;101443.16;5057164;28;20063;-50
2023/04/06 01:10:51;;;;;;;5.22;3.03;;;;;;;17.96;37.13;101438.66;5055482;28;20051;-45
2023/04/06 01:13:27;;;;;;;4.78;3.17;;;;;;;17.97;37.25;101435.00;5055230;28;20060;-45
2023/04/06 01:15:59;;;;;;;5.07;3.00;;;;;;;17.97;37.10;101439.50;5057392;28;20049;-45
2023/04/06 01:18:53;;;;;;;;;;;;;;;17.96;36.97;101437.81;5049292;28;20060;-45
2023/04/06 01:21:26;;;;;;;5.65;3.03;;;;;;;17.95;36.90;101431.59;5056782;28;19928;-46
2023/04/06 01:24:17;;;;;;;5.50;2.80;;;;;;;17.96;36.95;101432.44;5055563;28;20064;-47
2023/04/06 01:27:03;;;;;;;5.63;2.85;;;;;;;17.94;37.34;101429.84;5063738;28;20383;-45
2023/04/06 01:29:52;;;;;;;3.53;2.63;;;;;;;17.93;37.27;101417.44;5054848;28;20049;-47
2023/04/06 01:32:33;;;;;;;5.45;3.25;;;;;;;17.94;37.32;101416.47;5055442;28;20057;-45
2023/04/06 01:35:01;;;;;;;5.18;3.40;;;;;;;17.94;37.25;101423.66;5055527;28;20495;-50
2023/04/06 01:37:32;;;;;;;4.03;2.70;;;;;;;17.94;37.39;101418.28;5054682;28;20049;-48
2023/04/06 01:40:03;;;;;;;5.78;3.15;;;;;;;17.94;37.39;101423.66;5055167;28;20064;-48
2023/04/06 01:42:43;;;;;;;4.75;2.38;;;;;;;17.95;37.46;101425.38;5055281;28;20045;-47
2023/04/06 01:45:15;;;;;;;4.73;3.03;;;;;;;17.94;37.54;101423.66;5055404;28;20052;-46
2023/04/06 01:47:44;;;;;;;4.15;2.63;;;;;;;17.93;37.54;101422.78;5054741;28;20286;-45
2023/04/06 01:50:12;;;;;;;5.57;3.35;;;;;;;17.94;37.40;101424.50;5056246;28;20450;-47
2023/04/06 01:52:44;;;;;;;5.22;2.92;;;;;;;17.94;37.30;101423.66;5054725;28;20057;-45
2023/04/06 01:55:12;;;;;;;7.60;3.03;;;;;;;17.94;37.20;101423.66;5056336;28;20048;-46
2023/04/06 01:58:03;;;;;;;3.92;2.90;;;;;;;17.92;37.24;101415.72;5055941;28;20061;-45
2023/04/06 02:00:35;;;;;;;5.40;2.80;;;;;;;17.92;37.22;101412.19;5054098;28;20064;-48
2023/04/06 02:03:03;;;;;;;4.65;2.95;;;;;;;17.91;37.11;101413.16;5055201;28;20056;-45
2023/04/06 02:05:38;;;;;;;5.30;3.08;;;;;;;17.91;37.09;101410.50;5054830;28;20053;-47
2023/04/06 02:08:18;;;;;;;4.47;2.60;;;;;;;17.90;37.29;101401.56;5054650;28;20045;-47
2023/04/06 02:10:46;;;;;;;4.75;2.75;;;;;;;17.90;37.21;101406.06;5054094;28;20492;-50
2023/04/06 02:13:23;;;;;;;4.35;2.80;;;;;;;17.89;37.09;101404.38;5054610;28;20044;-48
2023/04/06 02:15:52;;;;;;;4.28;2.75;;;;;;;17.89;37.31;101402.53;5054893;28;20059;-49
2023/04/06 02:18:20;;;;;;;4.70;2.42;;;;;;;17.89;37.17;101407.91;5054781;28;20052;-46
2023/04/06 02:20:48;;;;;;;4.13;2.63;;;;;;;17.89;37.23;101399.88;5054857;28;20056;-48
2023/04/06 02:23:15;;;;;;;5.38;3.15;;;;;;;17.87;37.17;101399.13;5055602;28;20048;-49
2023/04/06 02:25:42;;;;;;;4.45;2.55;;;;;;;17.88;37.17;101403.53;5055572;28;20499;-47
2023/04/06 02:28:10;;;;;;;4.90;2.58;;;;;;;17.88;37.27;101400.00;5054651;28;20049;-50
2023/04/06 02:30:37;;;;;;;4.00;2.70;;;;;;;17.87;37.13;101400.97;5054380;28;20503;-50
2023/04/06 02:33:05;;;;;;;5.05;3.00;;;;;;;17.87;37.15;101403.63;5055691;28;20045;-49
2023/04/06 02:35:40;;;;;;;5.90;2.65;;;;;;;17.85;37.14;101398.38;5054502;28;20049;-47
2023/04/06 02:38:08;;;;;;;4.82;2.63;;;;;;;17.87;37.15;101403.63;5055364;28;20067;-50
2023/04/06 02:40:35;;;;;;;3.47;2.38;;;;;;;17.86;37.05;101404.59;5054993;28;20060;-48
2023/04/06 02:43:15;;;;;;;6.03;3.08;;;;;;;17.86;37.08;101408.13;5053639;28;20415;-48
2023/04/06 02:45:42;;;;;;;3.80;2.70;;;;;;;17.85;37.08;101400.19;5055394;28;20049;-45
2023/04/06 02:48:11;;;;;;;5.60;2.40;;;;;;;17.84;37.03;101396.66;5053313;28;20068;-45
2023/04/06 02:50:38;;;;;;;4.55;2.67;;;;;;;17.85;37.15;101405.56;5053523;28;20056;-45
2023/04/06 02:53:07;;;;;;;3.25;2.40;;;;;;;17.84;37.12;101402.03;5053272;28;20049;-49
2023/04/06 02:55:37;;;;;;;3.45;2.55;;;;;;;17.83;37.17;101399.47;5053464;28;20057;-50
2023/04/06 02:58:04;;;;;;;4.57;2.35;;;;;;;17.83;37.12;101400.31;5054063;28;20049;-50
2023/04/06 03:00:40;;;;;;;4.22;2.55;;;;;;;17.82;37.02;101400.41;5053908;28;20403;-49
2023/04/06 03:03:08;;;;;;;4.60;2.67;;;;;;;17.83;37.11;101410.19;5054722;28;20049;-49
2023/04/06 03:05:36;;;;;;;4.45;2.60;;;;;;;17.81;37.07;101410.25;5053212;28;20045;-47
2023/04/06 03:08:04;;;;;;;4.07;2.47;;;;;;;17.81;37.10;101410.25;5053666;28;20049;-49
2023/04/06 03:10:39;;;;;;;3.63;2.30;;;;;;;17.81;37.05;101412.09;5053901;28;20045;-48
2023/04/06 03:13:07;;;;;;;4.00;2.63;;;;;;;17.81;37.02;101407.59;5054299;28;20060;-49
2023/04/06 03:15:49;;;;;;;4.07;2.40;;;;;;;17.81;37.14;101412.94;5053535;28;20499;-51
2023/04/06 03:18:24;;;;;;;3.67;2.60;;;;;;;17.79;37.30;101415.75;5053282;28;20045;-51
2023/04/06 03:20:56;;;;;;;4.05;2.45;;;;;;;17.79;37.02;101418.41;5053553;28;20056;-49
2023/04/06 03:23:32;;;;;;;4.03;2.42;;;;;;;17.79;37.05;101420.25;5053115;28;20056;-51
2023/04/06 03:26:02;;;;;;;3.88;2.38;;;;;;;17.79;37.19;101425.59;5053480;28;20159;-48
2023/04/06 03:28:30;;;;;;;3.83;2.17;;;;;;;17.79;37.14;101428.28;5052808;28;20056;-50
2023/04/06 03:31:01;;;;;;;4.03;2.20;;;;;;;17.78;37.10;101430.09;5053414;28;20052;-50
2023/04/06 03:33:43;;;;;;;3.97;2.42;;;;;;;17.78;37.18;101432.78;5053389;28;20045;-49
2023/04/06 03:36:17;;;;;;;3.25;2.20;;;;;;;17.77;37.23;101431.03;5052597;28;20049;-49
2023/04/06 03:38:45;;;;;;;4.53;2.88;;;;;;;17.77;37.15;101428.38;5054409;28;20492;-48
2023/04/06 03:41:14;;;;;;;4.13;2.42;;;;;;;17.77;37.18;101427.50;5053175;28;20053;-49
2023/04/06 03:43:49;;;;;;;4.90;3.15;;;;;;;17.77;37.19;101438.22;5053254;28;20045;-47
2023/04/06 03:46:17;;;;;;;5.35;2.78;;;;;;;17.76;37.10;101440.06;5053212;28;20063;-49
2023/04/06 03:48:49;;;;;;;3.78;2.75;;;;;;;17.76;37.16;101434.69;5053010;28;20380;-48
2023/04/06 03:51:18;;;;;;;4.47;2.38;;;;;;;17.75;37.19;101437.50;5052927;28;20056;-49
2023/04/06 03:53:45;;;;;;;4.38;2.33;;;;;;;17.74;36.99;101439.31;5053860;28;20041;-47
2023/04/06 03:56:12;;;;;;;5.97;2.63;;;;;;;17.75;37.07;101441.03;5053255;28;20053;-49
2023/04/06 03:58:40;;;;;;;3.60;2.42;;;;;;;17.74;37.21;101431.28;5053904;28;20056;-49
2023/04/06 04:01:07;;;;;;;3.97;2.70;;;;;;;17.76;37.25;101439.19;5052772;28;20064;-47
2023/04/06 04:03:35;;;;;;;4.25;2.38;;;;;;;17.73;37.26;101432.19;5053709;28;20048;-48
2023/04/06 04:06:02;;;;;;;4.60;2.58;;;;;;;17.72;37.25;101435.84;5052414;28;20057;-50
2023/04/06 04:08:30;;;;;;;3.90;2.13;;;;;;;17.72;37.27;101448.38;5052926;28;20057;-49
2023/04/06 04:10:57;;;;;;;4.15;2.38;;;;;;;17.73;37.32;101447.41;5052531;28;20045;-50
2023/04/06 04:13:25;;;;;;;4.32;2.53;;;;;;;17.73;37.22;101452.75;5052447;28;20438;-49
2023/04/06 04:15:52;;;;;;;3.50;2.20;;;;;;;17.71;37.33;101450.19;5053856;28;20052;-49
2023/04/06 04:18:20;;;;;;;4.10;2.45;;;;;;;17.72;37.23;101451.06;5053551;28;20375;-50
2023/04/06 04:20:47;;;;;;;4.22;2.72;;;;;;;17.72;37.14;101453.72;5053486;28;20045;-51
2023/04/06 04:23:15;;;;;;;4.90;2.38;;;;;;;17.71;37.31;101452.03;5051582;28;20049;-49
2023/04/06 04:25:43;;;;;;;4.30;2.67;;;;;;;17.71;37.20;101446.66;5052405;28;20068;-47
2023/04/06 04:28:11;;;;;;;4.53;2.35;;;;;;;17.71;37.43;101449.34;5053531;28;20049;-47
2023/04/06 04:30:40;;;;;;;4.78;2.85;;;;;;;17.71;37.43;101452.03;5052363;28;20483;-47
2023/04/06 04:33:10;;;;;;;5.07;2.47;;;;;;;17.70;37.45;101439.56;5051854;28;20049;-50
2023/04/06 04:35:38;;;;;;;3.40;2.28;;;;;;;17.70;37.40;101431.53;5052318;28;20052;-49
2023/04/06 04:38:06;;;;;;;3.70;2.15;;;;;;;17.70;37.26;101437.78;5052329;28;20060;-49
2023/04/06 04:40:37;;;;;;;4.90;2.20;;;;;;;17.70;37.25;101436.91;5051782;28;20064;-49
2023/04/06 04:43:09;;;;;;;3.55;2.30;;;;;;;17.70;37.29;101440.47;5052261;28;20052;-50
2023/04/06 04:45:38;;;;;;;3.83;2.38;;;;;;;17.69;37.32;101433.38;5052143;28;20056;-50
2023/04/06 04:48:15;;;;;;;4.72;3.22;;;;;;;17.68;37.47;101437.03;5052134;28;20052;-49
2023/04/06 04:50:51;;;;;;;5.47;2.67;;;;;;;17.68;37.14;101439.69;5051858;28;20056;-51
2023/04/06 04:53:23;;;;;;;3.65;2.40;;;;;;;17.68;37.21;101441.53;5052204;28;20406;-50
2023/04/06 04:55:55;;;;;;;4.22;2.33;;;;;;;17.68;37.24;101444.19;5051644;28;20053;-44
2023/04/06 04:58:25;;;;;;;4.50;2.25;;;;;;;17.67;37.27;101442.50;5051999;28;20056;-45
2023/04/06 05:00:57;;;;;;;3.40;2.25;;;;;;;17.67;37.24;101448.69;5051819;28;20057;-44
2023/04/06 05:03:26;;;;;;;6.00;2.42;;;;;;;17.67;37.15;101447.84;5051747;28;20053;-46
2023/04/06 05:06:01;;;;;;;4.43;2.17;;;;;;;17.66;37.17;101452.34;5051609;28;20060;-46
2023/04/06 05:08:33;;;;;;;5.03;2.03;;;;;;;17.65;37.27;101447.94;5052089;28;20057;-50
2023/04/06 05:11:01;;;;;;;3.60;2.28;;;;;;;17.65;37.16;101450.59;5051564;28;20495;-49
2023/04/06 05:13:32;;;;;;;3.95;2.22;;;;;;;17.65;37.28;101447.94;5052087;28;20056;-50
2023/04/06 05:16:05;;;;;;;;;;;;;;;17.64;37.27;101450.72;5052369;28;20395;-51
2023/04/06 05:18:34;;;;;;;2.95;1.90;;;;;;;17.63;37.13;101452.56;5052027;28;19920;-50
2023/04/06 05:21:03;;;;;;;5.43;2.38;;;;;;;17.63;37.06;101449.88;5051943;28;20048;-49
2023/04/06 05:23:47;;;;;;;3.15;2.03;;;;;;;17.63;37.22;101451.69;5051681;28;20045;-49
2023/04/06 05:26:15;;;;;;;3.90;2.30;;;;;;;17.62;37.23;101453.50;5053038;28;20045;-49
2023/04/06 05:28:44;;;;;;;3.05;2.08;;;;;;;17.62;37.16;101448.13;5052195;28;20400;-47
2023/04/06 05:31:12;;;;;;;4.60;2.92;;;;;;;17.62;37.14;101444.59;5051645;28;20064;-47
2023/04/06 05:33:46;;;;;;;3.22;2.28;;;;;;;17.61;37.20;101448.25;5051913;28;20053;-49
2023/04/06 05:36:15;;;;;;;3.80;2.40;;;;;;;17.60;37.26;101442.03;5053669;28;20053;-51
2023/04/06 05:38:46;;;;;;;5.20;3.00;;;;;;;17.61;37.30;101448.25;5055221;28;20053;-49
2023/04/06 05:41:28;;;;;;;3.97;2.20;;;;;;;17.60;37.28;101447.41;5054968;28;20053;-50
2023/04/06 05:43:55;;;;;;;4.93;2.55;;;;;;;17.60;37.23;101444.72;5056293;28;20505;-51
2023/04/06 05:46:24;;;;;;;5.85;2.60;;;;;;;17.60;37.18;101452.75;5054936;28;20057;-49
2023/04/06 05:48:54;;;;;;;5.15;2.70;;;;;;;17.60;37.19;101450.06;5056540;28;20056;-49
2023/04/06 05:51:25;;;;;;;3.85;2.40;;;;;;;17.60;37.20;101460.78;5055141;28;20391;-49
2023/04/06 05:53:52;;;;;;;4.07;2.30;;;;;;;17.59;37.22;101453.72;5055209;28;20049;-52
2023/04/06 05:56:20;;;;;;;6.63;2.97;;;;;;;17.59;37.22;101461.75;5055062;28;20056;-51
2023/04/06 05:58:47;;;;;;;4.82;2.90;;;;;;;17.58;37.36;101462.69;5056115;28;20052;-49
2023/04/06 06:01:21;;;;;;;4.63;2.78;;;;;;;17.58;37.32;101464.53;5054463;28;20056;-51
2023/04/06 06:03:48;;;;;;;4.75;2.55;;;;;;;17.57;37.42;101466.34;5054906;28;20045;-48
2023/04/06 06:06:16;;;;;;;4.18;2.80;;;;;;;17.58;37.46;101475.22;5054606;28;20052;-47
2023/04/06 06:09:06;;;;;;;5.13;2.65;;;;;;;17.57;37.48;101478.88;5055883;28;20523;-47
2023/04/06 06:11:40;;;;;;;7.32;2.65;;;;;;;17.59;37.60;101479.66;5054854;28;20068;-49
2023/04/06 06:14:08;;;;;;;3.35;2.30;;;;;;;17.57;37.42;101479.72;5054796;28;20041;-51
2023/04/06 06:16:40;;;;;;;4.00;2.55;;;;;;;17.58;37.52;101478.75;5055211;28;20056;-49
2023/04/06 06:19:10;;;;;;;6.97;2.95;;;;;;;17.58;37.76;101486.78;5054233;28;20403;-47
2023/04/06 06:21:39;;;;;;;5.25;2.65;;;;;;;17.57;37.74;101485.09;5054402;28;20060;-48
2023/04/06 06:24:07;;;;;;;8.43;2.80;;;;;;;17.58;37.69;101485.94;5053687;28;20049;-47
2023/04/06 06:26:36;;;;;;;3.70;2.53;;;;;;;17.57;37.75;101485.09;5054557;28;20060;-50
2023/04/06 06:29:06;;;;;;;4.60;2.60;;;;;;;17.57;37.60;101482.41;5054704;28;20049;-49
2023/04/06 06:31:37;;;;;;;6.90;2.85;;;;;;;17.58;37.63;101480.59;5054564;28;20053;-52
2023/04/06 06:34:05;;;;;;;3.17;2.00;;;;;;;17.58;37.54;101488.63;5053877;28;20049;-49
2023/04/06 06:36:35;;;;;;;3.63;2.55;;;;;;;17.59;37.50;101487.69;5054024;28;20415;-48
2023/04/06 06:39:05;;;;;;;5.28;2.72;;;;;;;17.59;37.38;101485.84;5054501;28;20052;-47
2023/04/06 06:41:33;;;;;;;6.30;2.65;;;;;;;17.59;37.40;101491.22;5054275;28;20055;-49
2023/04/06 06:44:01;;;;;;;4.07;2.72;;;;;;;17.60;37.47;101481.34;5053853;28;20052;-50
2023/04/06 06:46:28;;;;;;;4.88;2.55;;;;;;;17.59;37.45;101475.16;5053332;28;20057;-51
2023/04/06 06:48:56;;;;;;;4.90;2.40;;;;;;;17.59;37.67;101483.19;5052432;28;20045;-51
2023/04/06 06:51:23;;;;;;;3.65;2.35;;;;;;;17.61;37.65;101486.59;5053665;28;20049;-51
2023/04/06 06:53:52;;;;;;;7.38;2.70;;;;;;;17.61;37.13;101483.91;5053175;28;20049;-50
2023/04/06 06:56:19;;;;;;;5.45;2.53;;;;;;;17.63;37.17;101489.19;5055123;28;20048;-47
2023/04/06 06:58:47;;;;;;;7.05;2.90;;;;;;;17.65;37.07;101489.91;5054004;28;20057;-50
2023/04/06 07:01:14;;;;;;;4.95;2.70;;;;;;;17.66;36.46;101491.63;5053650;28;20431;-49
2023/04/06 07:03:42;;;;;;;5.38;2.30;;;;;;;17.67;36.32;101491.53;5053942;28;20045;-48
2023/04/06 07:06:10;;;;;;;3.58;2.38;;;;;;;17.68;36.41;101485.22;5055073;28;20495;-50
2023/04/06 07:08:39;;;;;;;4.15;2.28;;;;;;;17.69;36.55;101489.59;5053906;28;20380;-48
2023/04/06 07:11:07;;;;;;;3.90;2.97;;;;;;;17.71;36.51;101502.91;5054850;28;20048;-52
2023/04/06 07:13:34;;;;;;;4.10;2.70;;;;;;;17.72;36.56;101505.47;5053449;28;20056;-57
2023/04/06 07:16:02;;;;;;;6.53;2.72;;;;;;;17.72;36.88;101502.78;5054808;28;20484;-53
2023/04/06 07:18:30;;;;;;;8.10;2.80;;;;;;;17.74;36.91;101508.94;5053635;28;20392;-57
2023/04/06 07:20:59;;;;;;;5.55;3.83;;;;;;;17.75;34.86;101504.44;5052735;28;20385;-57
2023/04/06 07:23:27;;;;;;;6.95;3.15;;;;;;;17.73;34.48;101499.13;5054314;28;20044;-54
2023/04/06 07:25:54;;;;;;;7.50;3.10;;;;;;;17.74;33.91;101502.66;5054308;28;20049;-48
2023/04/06 07:28:22;;;;;;;5.10;3.38;;;;;;;17.72;33.50;101497.44;5054378;28;20360;-48
2023/04/06 07:30:50;;;;;;;6.97;3.42;;;;;;;17.72;33.83;101504.63;5054396;28;20051;-48
2023/04/06 07:33:17;;;;;;;9.60;4.10;;;;;;;17.73;33.29;101506.31;5053121;28;20068;-49
2023/04/06 07:35:46;;;;;;;6.13;4.10;;;;;;;17.70;31.93;101498.50;5053589;28;20494;-50
2023/04/06 07:38:14;;;;;;;6.43;4.28;;;;;;;17.68;32.43;101497.75;5053160;28;20053;-48
2023/04/06 07:40:42;;;;;;;7.55;3.53;;;;;;;17.68;33.74;101495.94;5053194;28;20053;-49
2023/04/06 07:43:10;;;;;;;6.00;3.45;;;;;;;17.69;34.36;101494.97;5052704;28;20379;-50
2023/04/06 07:45:37;;;;;;;4.28;3.05;;;;;;;17.71;34.87;101502.91;5053083;28;20047;-55
2023/04/06 07:48:05;;;;;;;6.50;3.33;;;;;;;17.70;34.61;101503.84;5052344;28;20063;-53
2023/04/06 07:50:34;;;;;;;6.07;3.97;;;;;;;17.73;33.72;101501.81;5052478;28;20498;-49
2023/04/06 07:53:02;;;;;;;6.10;3.95;;;;;;;17.72;32.50;101500.09;5052518;28;20045;-51
2023/04/06 07:55:30;;;;;;;7.28;4.05;;;;;;;17.73;32.02;101506.31;5053042;28;20045;-50
2023/04/06 07:57:57;;;;;;;6.43;3.97;;;;;;;17.70;32.19;101507.41;5052812;28;20463;-48
2023/04/06 08:00:25;;;;;;;6.45;4.15;;;;;;;17.70;32.23;101510.09;5053613;28;20056;-49
2023/04/06 08:02:52;;;;;;;6.18;4.25;;;;;;;17.70;32.24;101503.84;5053734;28;20412;-50
2023/04/06 08:05:20;;;;;;;4.97;3.78;;;;;;;17.69;32.20;101504.81;5053808;28;20041;-52
2023/04/06 08:07:47;;;;;;;5.65;3.80;;;;;;;17.68;32.87;101509.31;5053409;28;20040;-47
2023/04/06 08:10:15;;;;;;;5.97;3.90;;;;;;;17.71;33.93;101502.91;5053324;28;20045;-47
2023/04/06 08:12:42;;;;;;;6.72;3.40;;;;;;;17.71;32.68;101500.22;5053732;28;20045;-48
2023/04/06 08:15:10;;;;;;;6.80;3.80;;;;;;;17.72;32.44;101499.25;5053486;28;20052;-49
2023/04/06 08:17:37;;;;;;;5.63;4.20;;;;;;;17.72;32.22;101496.56;5053301;28;20060;-50
2023/04/06 08:20:05;;;;;;;6.65;3.70;;;;;;;17.72;31.84;101497.44;5053427;28;20056;-48
2023/04/06 08:22:32;;;;;;;6.68;3.80;;;;;;;17.72;31.63;101488.53;5053222;28;20048;-48
2023/04/06 08:25:00;;;;;;;4.93;3.83;;;;;;;17.72;32.26;101492.06;5053001;28;20041;-48
2023/04/06 08:27:27;;;;;;;5.35;3.72;;;;;;;17.73;31.63;101491.09;5053448;28;20044;-49
2023/04/06 08:29:54;;;;;;;6.60;3.33;;;;;;;17.73;32.17;101495.59;5053281;28;20048;-50
2023/04/06 08:32:22;;;;;;;4.55;3.05;;;;;;;17.74;32.49;101498.22;5053507;28;20053;-53
2023/04/06 08:34:49;;;;;;;5.00;3.40;;;;;;;17.76;32.89;101501.66;5053483;28;20037;-52
2023/04/06 08:37:16;;;;;;;6.63;2.83;;;;;;;17.78;34.50;101498.84;5053276;28;20728;-50
2023/04/06 08:39:44;;;;;;;4.70;2.75;;;;;;;17.78;34.19;101497.06;5067471;28;20505;-51
2023/04/06 08:42:20;;;;;;;6.63;3.17;;;;;;;17.81;33.99;101500.47;5073160;28;20511;-58
2023/04/06 08:44:50;;;;;;;4.35;2.88;;;;;;;17.81;34.14;101492.44;5073228;28;20048;-51
2023/04/06 08:47:19;;;;;;;5.07;2.22;;;;;;;17.81;34.75;101497.78;5073007;28;20056;-56
2023/04/06 08:49:52;;;;;;;4.30;2.60;;;;;;;17.82;34.79;101496.81;5073059;28;20055;-56
2023/04/06 08:52:19;;;;;;;5.20;2.90;;;;;;;17.81;35.44;101493.28;5073224;28;20045;-52
2023/04/06 08:54:47;;;;;;;4.05;2.50;;;;;;;17.82;34.90;101497.69;5073426;28;20056;-51
2023/04/06 08:57:16;;;;;;;4.22;2.50;;;;;;;17.83;35.54;101488.72;5072989;28;20051;-47
2023/04/06 08:59:45;;;;;;;4.65;2.65;;;;;;;17.84;35.19;101494.91;5072228;28;20075;-47
2023/04/06 09:02:17;;;;;;;5.00;2.58;;;;;;;17.85;35.43;101493.94;5072529;28;20064;-51
2023/04/06 09:04:52;;;;;;;4.43;2.60;;;;;;;17.85;35.45;101485.91;5071860;28;20048;-57
2023/04/06 09:07:19;;;;;;;6.72;2.88;;;;;;;17.85;35.45;101489.44;5072616;28;20052;-56
2023/04/06 09:09:51;;;;;;;6.22;2.83;;;;;;;17.86;35.29;101484.94;5074623;28;20395;-58
2023/04/06 09:12:30;;;;;;;4.95;2.35;;;;;;;17.85;35.04;101485.91;5076436;28;20049;-49
2023/04/06 09:14:59;;;;;;;4.07;2.35;;;;;;;17.86;35.58;101490.28;5076779;28;20040;-50
2023/04/06 09:17:29;;;;;;;3.40;2.50;;;;;;;17.86;35.90;101490.28;5075907;28;20059;-50
2023/04/06 09:19:57;;;;;;;3.92;2.30;;;;;;;17.86;36.04;101485.78;5076562;28;20044;-48
2023/04/06 09:22:25;;;;;;;3.67;2.40;;;;;;;17.87;36.24;101497.38;5076424;28;20055;-48
2023/04/06 09:24:54;;;;;;;3.78;1.77;;;;;;;17.88;39.11;101480.34;5075946;28;20052;-47
2023/04/06 09:27:35;;;;;;;3.75;2.30;;;;;;;17.88;37.97;101477.66;5076376;28;20052;-49
2023/04/06 09:30:05;;;;;;;3.72;2.67;;;;;;;17.88;36.79;101475.84;5076423;28;20141;-47
2023/04/06 09:32:32;;;;;;;6.40;2.78;;;;;;;17.89;35.56;101487.41;5060805;28;20049;-48
2023/04/06 09:35:07;;;;;;;5.13;2.47;;;;;;;17.88;35.45;101472.31;5056395;28;20499;-46
2023/04/06 09:37:35;;;;;;;3.42;2.30;;;;;;;17.89;35.66;101474.00;5056367;28;20506;-47
2023/04/06 09:40:07;;;;;;;3.45;2.10;;;;;;;17.89;35.88;101466.84;5056179;28;20049;-50
2023/04/06 09:42:35;;;;;;;4.47;2.38;;;;;;;17.89;35.53;101465.97;5056437;28;20049;-47
2023/04/06 09:45:03;;;;;;;4.22;2.30;;;;;;;17.89;35.78;101463.31;5055712;28;20052;-57
2023/04/06 09:47:32;;;;;;;3.88;2.53;;;;;;;17.89;36.08;101461.47;5055569;28;20049;-56
2023/04/06 09:50:00;;;;;;;4.35;2.00;;;;;;;17.89;36.17;101460.63;5055796;28;20119;-57
2023/04/06 09:52:33;;;;;;;4.18;2.47;;;;;;;17.88;36.23;101456.25;5055429;28;20060;-58
2023/04/06 09:55:04;;;;;;;3.63;1.92;;;;;;;17.90;35.83;101448.94;5055744;28;20055;-52
2023/04/06 09:58:03;;;;;;;4.82;2.42;;;;;;;17.89;33.22;101447.22;5055896;28;20053;-59
2023/04/06 10:00:35;;;;;;;3.53;2.17;;;;;;;17.89;32.66;101439.19;5055298;28;20064;-55
2023/04/06 10:03:08;;;;;;;5.28;2.63;;;;;;;17.89;33.49;101432.00;5055841;28;20052;-58
2023/04/06 10:05:55;;;;;;;4.28;2.35;;;;;;;17.92;35.23;101433.63;5056029;28;20037;-48
2023/04/06 10:08:27;;;;;;;4.10;2.17;;;;;;;17.93;36.53;101435.34;5055884;28;20055;-50
2023/04/06 10:11:00;;;;;;;3.10;1.65;;;;;;;17.93;36.20;101433.50;5055933;28;20053;-48
2023/04/06 10:13:28;;;;;;;3.72;1.83;;;;;;;17.94;36.51;101429.00;5055830;28;20045;-48
2023/04/06 10:15:57;;;;;;;3.83;1.83;;;;;;;17.94;36.34;101423.66;5055983;28;20041;-46
2023/04/06 10:18:24;;;;;;;3.85;2.05;;;;;;;17.95;37.26;101430.75;5055708;28;20048;-49
2023/04/06 10:21:06;;;;;;;5.55;2.55;;;;;;;17.95;36.73;101425.38;5054541;28;20052;-49
2023/04/06 10:23:43;;;;;;;3.67;2.13;;;;;;;17.95;36.50;101420.88;5055635;28;20049;-47
2023/04/06 10:26:16;;;;;;;3.75;2.30;;;;;;;17.95;36.52;101410.16;5055709;28;20484;-55
2023/04/06 10:28:45;;;;;;;4.10;1.70;;;;;;;17.96;36.70;101411.03;5055413;28;20399;-56
2023/04/06 10:31:13;;;;;;;3.92;2.00;;;;;;;17.96;36.80;101413.69;5055389;28;20044;-54
2023/04/06 10:33:41;;;;;;;4.68;2.20;;;;;;;17.96;36.46;101411.88;5055435;28;20052;-50
2023/04/06 10:36:09;;;;;;;4.00;1.75;;;;;;;17.95;36.47;101410.16;5054227;28;20044;-47
2023/04/06 10:38:38;;;;;;;3.67;2.05;;;;;;;17.97;36.48;101399.31;5055334;28;20068;-47
2023/04/06 10:41:10;;;;;;;3.88;2.22;;;;;;;17.96;36.51;101400.31;5054894;28;20056;-46
2023/04/06 10:43:40;;;;;;;3.67;2.33;;;;;;;17.99;37.56;101400.09;5054672;28;20049;-49
2023/04/06 10:46:09;;;;;;;5.00;2.03;;;;;;;17.99;37.58;101400.94;5054839;28;20048;-47
2023/04/06 10:48:46;;;;;;;4.93;2.42;;;;;;;18.00;36.37;101399.13;5055211;28;20041;-45
2023/04/06 10:51:18;;;;;;;6.65;2.38;;;;;;;17.99;37.05;101394.72;5054877;28;20116;-53
2023/04/06 10:53:48;;;;;;;3.73;2.33;;;;;;;18.00;35.95;101393.75;5055174;28;20467;-55
2023/04/06 10:56:25;;;;;;;6.72;3.08;;;;;;;17.99;34.71;101394.72;5054067;28;20064;-57
2023/04/06 10:58:57;;;;;;;5.22;3.28;;;;;;;17.97;32.54;101384.09;5054786;28;20052;-56
2023/04/06 11:01:27;;;;;;;7.50;3.53;;;;;;;17.95;32.05;101383.38;5054810;28;20053;-57
2023/04/06 11:03:58;;;;;;;9.25;3.90;;;;;;;17.93;32.00;101384.44;5054819;28;20056;-56
2023/04/06 11:06:30;;;;;;;6.60;4.07;;;;;;;17.90;30.92;101376.63;5054886;28;20048;-57
2023/04/06 11:08:58;;;;;;;5.38;3.78;;;;;;;17.88;30.31;101378.56;5054689;28;20072;-57
2023/04/06 11:11:26;;;;;;;5.72;3.60;;;;;;;17.86;30.86;101373.28;5054632;28;20048;-57
2023/04/06 11:13:59;;;;;;;5.28;3.30;;;;;;;17.83;30.88;101360.16;5054798;28;20045;-49
2023/04/06 11:16:29;;;;;;;5.28;3.20;;;;;;;17.83;31.65;101368.19;5054705;28;20052;-50
2023/04/06 11:19:01;;;;;;;4.32;2.38;;;;;;;17.84;33.08;101358.31;5054451;28;20049;-53
2023/04/06 11:21:43;;;;;;;4.40;2.63;;;;;;;17.85;33.73;101357.34;5054483;28;20471;-53
2023/04/06 11:24:19;;;;;;;6.40;2.35;;;;;;;17.86;34.10;101353.69;5054267;28;20293;-53
2023/04/06 11:26:50;;;;;;;4.10;2.58;;;;;;;17.86;34.42;101351.88;5054139;28;20061;-51
2023/04/06 11:29:31;;;;;;;3.92;2.40;;;;;;;17.87;34.45;101342.88;5054234;28;20063;-51
2023/04/06 11:32:03;;;;;;;3.13;1.85;;;;;;;17.88;34.86;101349.09;5053880;28;20041;-52
2023/04/06 11:34:36;;;;;;;5.23;2.30;;;;;;;17.88;34.97;101341.91;5053714;28;20438;-52
2023/04/06 11:37:08;;;;;;;;;;;;;;;17.89;35.19;101345.44;5054552;28;20040;-55
2023/04/06 11:39:50;;;;;;;2.80;1.92;;;;;;;17.88;35.26;101344.59;5054219;28;19920;-55
2023/04/06 11:42:25;;;;;;;4.82;1.85;;;;;;;17.89;35.43;101340.94;5054157;28;20068;-54